createdAt,value
2022-12-15T00:02:20.098Z,100341.94
2022-12-15T00:05:07.187Z,100334.03
2022-12-15T00:07:54.292Z,100335.31
2022-12-15T00:10:41.365Z,100333.81
2022-12-15T00:13:29.662Z,100329.09
2022-12-15T00:16:18.862Z,100328.94
2022-12-15T00:19:05.911Z,100326.41
2022-12-15T00:21:53.220Z,100324.91
2022-12-15T00:24:40.142Z,100333.44
2022-12-15T00:27:27.343Z,100339.00
2022-12-15T00:30:14.492Z,100335.84
2022-12-15T00:33:03.270Z,100334.75
2022-12-15T00:35:50.130Z,100336.59
2022-12-15T00:38:37.474Z,100333.34
2022-12-15T00:41:07.265Z,100332.47
2022-12-15T00:43:37.629Z,100334.69
2022-12-15T00:46:25.120Z,100325.53
2022-12-15T00:48:56.504Z,100328.56
2022-12-15T00:51:43.290Z,100330.03
2022-12-15T00:54:30.975Z,100329.81
2022-12-15T00:57:17.942Z,100339.00
2022-12-15T01:00:05.320Z,100330.88
2022-12-15T01:02:52.365Z,100335.22
2022-12-15T01:05:41.271Z,100335.00
2022-12-15T01:08:28.081Z,100322.75
2022-12-15T01:11:19.183Z,100321.13
2022-12-15T01:14:07.202Z,100318.47
2022-12-15T01:16:54.632Z,100323.88
2022-12-15T01:19:41.423Z,100322.28
2022-12-15T01:22:12.851Z,100322.28
2022-12-15T01:24:42.564Z,100321.03
2022-12-15T01:27:12.482Z,100326.59
2022-12-15T01:29:42.232Z,100311.00
2022-12-15T01:32:12.141Z,100320.69
2022-12-15T01:34:41.651Z,100324.03
2022-12-15T01:37:13.080Z,100312.94
2022-12-15T01:40:00.281Z,100321.97
2022-12-15T01:42:30.281Z,100327.81
2022-12-15T01:45:14.674Z,100331.25
2022-12-15T01:47:44.792Z,100324.56
2022-12-15T01:50:15.323Z,100328.13
2022-12-15T01:52:47.263Z,100321.56
2022-12-15T01:55:20.587Z,100325.66
2022-12-15T01:57:53.809Z,100326.78
2022-12-15T02:00:23.575Z,100320.28
2022-12-15T02:02:53.706Z,100325.41
2022-12-15T02:05:23.643Z,100317.53
2022-12-15T02:07:55.021Z,100322.34
2022-12-15T02:10:26.683Z,100326.50
2022-12-15T02:13:02.083Z,100315.13
2022-12-15T02:15:34.963Z,100314.31
2022-12-15T02:18:08.052Z,100320.41
2022-12-15T02:20:48.952Z,100323.69
2022-12-15T02:23:37.551Z,100324.69
2022-12-15T02:26:24.733Z,100328.81
2022-12-15T02:29:01.580Z,100332.50
2022-12-15T02:31:52.151Z,100328.47
2022-12-15T02:34:25.015Z,100325.13
2022-12-15T02:36:57.451Z,100340.59
2022-12-15T02:39:27.522Z,100336.38
2022-12-15T02:41:57.023Z,100334.25
2022-12-15T02:44:30.082Z,100332.09
2022-12-15T02:47:20.711Z,100326.41
2022-12-15T02:50:05.704Z,100329.66
2022-12-15T02:52:44.174Z,100326.00
2022-12-15T02:55:19.103Z,100328.81
2022-12-15T02:57:56.104Z,100324.81
2022-12-15T03:00:26.201Z,100324.25
2022-12-15T03:02:56.953Z,100322.13
2022-12-15T03:05:27.534Z,100328.03
2022-12-15T03:07:58.966Z,100331.13
2022-12-15T03:10:29.213Z,100324.44
2022-12-15T03:12:59.201Z,100330.53
2022-12-15T03:15:34.922Z,100329.41
2022-12-15T03:18:05.252Z,100327.75
2022-12-15T03:20:35.081Z,100324.75
2022-12-15T03:23:06.232Z,100320.91
2022-12-15T03:25:36.253Z,100316.78
2022-12-15T03:28:06.035Z,100326.59
2022-12-15T03:30:35.954Z,100323.34
2022-12-15T03:33:05.785Z,100317.94
2022-12-15T03:35:35.785Z,100320.25
2022-12-15T03:38:06.913Z,100318.69
2022-12-15T03:40:36.792Z,100322.59
2022-12-15T03:43:06.774Z,100327.56
2022-12-15T03:45:36.750Z,100338.84
2022-12-15T03:48:06.555Z,100333.38
2022-12-15T03:50:36.563Z,100331.72
2022-12-15T03:53:07.726Z,100340.25
2022-12-15T03:55:37.698Z,100328.94
2022-12-15T03:58:07.322Z,100327.38
2022-12-15T04:00:37.342Z,100323.03
2022-12-15T04:03:07.104Z,100328.16
2022-12-15T04:05:37.264Z,100332.59
2022-12-15T04:08:08.362Z,100328.47
2022-12-15T04:10:38.285Z,100324.38
2022-12-15T04:13:09.003Z,100326.13
2022-12-15T04:15:40.104Z,100328.66
2022-12-15T04:18:11.267Z,100330.22
2022-12-15T04:20:40.624Z,100340.09
2022-12-15T04:23:11.882Z,100330.91
2022-12-15T04:25:59.107Z,100332.41
2022-12-15T04:28:45.864Z,100329.75
2022-12-15T04:31:33.946Z,100326.56
2022-12-15T04:34:23.081Z,100332.78
2022-12-15T04:37:11.882Z,100323.00
2022-12-15T04:40:01.553Z,100330.38
2022-12-15T04:42:50.413Z,100331.69
2022-12-15T04:45:38.236Z,100327.03
2022-12-15T04:48:25.404Z,100339.56
2022-12-15T04:51:12.183Z,100338.25
2022-12-15T04:53:59.276Z,100337.91
2022-12-15T04:56:47.451Z,100336.56
2022-12-15T04:59:37.111Z,100351.88
2022-12-15T05:02:24.165Z,100349.34
2022-12-15T05:05:11.451Z,100354.25
2022-12-15T05:07:58.473Z,100353.78
2022-12-15T05:10:45.602Z,100361.25
2022-12-15T05:13:34.245Z,100357.66
2022-12-15T05:16:23.763Z,100360.34
2022-12-15T05:19:10.704Z,100358.56
2022-12-15T05:21:58.151Z,100355.88
2022-12-15T05:24:45.083Z,100362.75
2022-12-15T05:27:32.294Z,100359.63
2022-12-15T05:30:20.484Z,100353.28
2022-12-15T05:32:50.484Z,100349.94
2022-12-15T05:35:20.053Z,100361.41
2022-12-15T05:37:50.774Z,100360.72
2022-12-15T05:40:20.353Z,100359.84
2022-12-15T05:42:50.465Z,100364.53
2022-12-15T05:45:21.825Z,100364.31
2022-12-15T05:47:52.403Z,100365.53
2022-12-15T05:50:22.950Z,100379.31
2022-12-15T05:52:53.043Z,100383.94
2022-12-15T05:55:22.644Z,100382.19
2022-12-15T05:57:52.973Z,100383.66
2022-12-15T06:00:24.573Z,100385.31
2022-12-15T06:02:54.684Z,100388.03
2022-12-15T06:05:24.223Z,100392.44
2022-12-15T06:07:54.804Z,100393.09
2022-12-15T06:10:24.323Z,100391.22
2022-12-15T06:12:54.561Z,100388.69
2022-12-15T06:15:25.711Z,100388.91
2022-12-15T06:17:56.315Z,100395.50
2022-12-15T06:20:32.306Z,100395.84
2022-12-15T06:23:03.805Z,100405.72
2022-12-15T06:25:33.814Z,100414.09
2022-12-15T06:28:03.834Z,100410.88
2022-12-15T06:30:35.175Z,100416.31
2022-12-15T06:33:05.866Z,100422.88
2022-12-15T06:35:37.577Z,100427.19
2022-12-15T06:38:08.029Z,100426.91
2022-12-15T06:40:38.215Z,100433.69
2022-12-15T06:43:09.031Z,100443.16
2022-12-15T06:45:40.115Z,100458.22
2022-12-15T06:48:10.116Z,100460.56
2022-12-15T06:50:41.294Z,100463.59
2022-12-15T06:53:11.335Z,100464.25
2022-12-15T06:55:41.004Z,100463.94
2022-12-15T06:58:12.511Z,100463.88
2022-12-15T07:00:44.317Z,100473.31
2022-12-15T07:03:15.657Z,100482.19
2022-12-15T07:05:45.724Z,100486.06
2022-12-15T07:08:17.057Z,100481.50
2022-12-15T07:10:46.784Z,100475.97
2022-12-15T07:13:17.155Z,100471.97
2022-12-15T07:15:50.380Z,100474.09
2022-12-15T07:18:20.498Z,100473.91
2022-12-15T07:20:50.094Z,100477.78
2022-12-15T07:23:29.584Z,100474.47
2022-12-15T07:26:11.819Z,100481.34
2022-12-15T07:28:42.384Z,100496.69
2022-12-15T07:31:13.646Z,100498.13
2022-12-15T07:33:43.771Z,100508.88
2022-12-15T07:36:13.595Z,100511.69
2022-12-15T07:38:50.847Z,100519.66
2022-12-15T07:41:21.497Z,100515.91
2022-12-15T07:43:51.393Z,100512.16
2022-12-15T07:46:24.441Z,100510.94
2022-12-15T07:48:54.816Z,100513.38
2022-12-15T07:51:24.656Z,100522.28
2022-12-15T07:53:54.753Z,100527.84
2022-12-15T07:56:24.756Z,100526.28
2022-12-15T07:58:54.848Z,100531.53
2022-12-15T08:01:26.376Z,100537.00
2022-12-15T08:03:56.999Z,100538.31
2022-12-15T08:06:26.675Z,100530.56
2022-12-15T08:08:56.706Z,100533.34
2022-12-15T08:11:26.547Z,100536.69
2022-12-15T08:14:05.745Z,100545.59
2022-12-15T08:16:41.410Z,100545.47
2022-12-15T08:19:12.646Z,100559.41
2022-12-15T08:21:42.961Z,100557.75
2022-12-15T08:24:13.676Z,100557.59
2022-12-15T08:26:44.206Z,100560.50
2022-12-15T08:32:11.561Z,100564.72
2022-12-15T08:34:42.542Z,100561.22
2022-12-15T08:37:12.605Z,100551.66
2022-12-15T08:39:42.847Z,100556.41
2022-12-15T08:42:12.703Z,100558.03
2022-12-15T08:44:42.744Z,100562.09
2022-12-15T08:47:15.322Z,100571.44
2022-12-15T08:49:45.453Z,100565.66
2022-12-15T08:52:15.104Z,100571.16
2022-12-15T08:54:44.942Z,100569.03
2022-12-15T08:57:14.978Z,100573.44
2022-12-15T08:59:45.088Z,100575.88
2022-12-15T09:02:16.817Z,100571.75
2022-12-15T09:04:47.209Z,100582.66
2022-12-15T09:07:16.895Z,100576.75
2022-12-15T09:09:47.380Z,100573.91
2022-12-15T09:12:17.219Z,100578.81
2022-12-15T09:14:47.085Z,100570.22
2022-12-15T09:17:18.519Z,100567.72
2022-12-15T09:19:48.646Z,100558.50
2022-12-15T09:22:19.472Z,100558.19
2022-12-15T09:24:51.028Z,100556.31
2022-12-15T09:27:21.274Z,100566.84
2022-12-15T09:29:51.166Z,100549.44
2022-12-15T09:32:22.757Z,100559.13
2022-12-15T09:34:53.075Z,100563.47
2022-12-15T09:37:23.566Z,100563.78
2022-12-15T09:39:53.761Z,100561.03
2022-12-15T09:42:27.453Z,100567.41
2022-12-15T09:45:01.412Z,100570.06
2022-12-15T09:47:36.413Z,100572.56
2022-12-15T09:50:08.932Z,100562.28
2022-12-15T09:52:44.581Z,100560.50
2022-12-15T09:55:19.375Z,100562.53
2022-12-15T09:57:53.033Z,100563.72
2022-12-15T10:00:26.014Z,100573.25
2022-12-15T10:03:13.702Z,100574.38
2022-12-15T10:08:41.882Z,100570.69
2022-12-15T10:11:20.202Z,100559.00
2022-12-15T10:13:53.730Z,100561.88
2022-12-15T10:16:29.713Z,100564.59
2022-12-15T10:19:04.203Z,100563.09
2022-12-15T10:21:36.723Z,100551.75
2022-12-15T10:25:07.452Z,100548.88
2022-12-15T10:27:24.867Z,100542.31
2022-12-15T10:30:00.022Z,100540.09
2022-12-15T10:32:40.925Z,100539.94
2022-12-15T10:35:17.792Z,100534.34
2022-12-15T10:37:50.189Z,100534.84
2022-12-15T10:40:21.164Z,100539.56
2022-12-15T10:42:51.809Z,100533.97
2022-12-15T10:45:37.416Z,100539.06
2022-12-15T10:48:09.368Z,100532.94
2022-12-15T10:50:39.047Z,100533.94
2022-12-15T10:53:31.801Z,100529.88
2022-12-15T10:56:02.581Z,100544.31
2022-12-15T10:58:32.642Z,100541.47
2022-12-15T11:01:17.262Z,100536.50
2022-12-15T11:03:51.894Z,100530.34
2022-12-15T11:06:23.393Z,100530.28
2022-12-15T11:08:56.157Z,100527.88
2022-12-15T11:11:45.158Z,100526.09
2022-12-15T11:14:17.260Z,100533.38
2022-12-15T11:16:50.133Z,100531.81
2022-12-15T11:19:33.015Z,100538.25
2022-12-15T11:22:05.350Z,100535.44
2022-12-15T11:24:40.590Z,100544.16
2022-12-15T11:27:17.640Z,100552.94
2022-12-15T11:29:59.177Z,100549.66
2022-12-15T11:32:30.238Z,100549.28
2022-12-15T11:35:01.066Z,100546.00
2022-12-15T11:37:41.278Z,100548.41
2022-12-15T11:40:28.932Z,100548.81
2022-12-15T11:43:09.121Z,100553.59
2022-12-15T11:45:43.960Z,100547.78
2022-12-15T11:48:17.690Z,100558.31
2022-12-15T11:50:53.849Z,100560.06
2022-12-15T11:53:38.321Z,100562.66
2022-12-15T11:56:14.011Z,100562.72
2022-12-15T11:58:59.639Z,100494.41
2022-12-15T12:01:55.363Z,100565.06
2022-12-15T12:04:30.330Z,100565.75
2022-12-15T12:07:09.161Z,100572.66
2022-12-15T12:09:41.808Z,100578.19
2022-12-15T12:12:17.810Z,100580.00
2022-12-15T12:14:53.551Z,100577.16
2022-12-15T12:17:32.560Z,100582.09
2022-12-15T12:22:59.109Z,100580.53
2022-12-15T12:25:28.728Z,100576.97
2022-12-15T12:28:01.899Z,100582.97
2022-12-15T12:30:36.103Z,100588.50
2022-12-15T12:33:12.818Z,100605.16
2022-12-15T12:35:47.184Z,100595.75
2022-12-15T12:38:21.881Z,100595.34
2022-12-15T12:40:57.029Z,100602.53
2022-12-15T12:43:33.186Z,100592.38
2022-12-15T12:46:26.189Z,100586.97
2022-12-15T12:48:59.484Z,100602.25
2022-12-15T12:51:30.848Z,100601.09
2022-12-15T12:54:01.719Z,100605.13
2022-12-15T12:56:33.560Z,100606.34
2022-12-15T12:59:09.032Z,100616.28
2022-12-15T13:01:40.526Z,100615.03
2022-12-15T13:04:12.971Z,100622.59
2022-12-15T13:06:59.750Z,100629.19
2022-12-15T13:09:40.394Z,100626.09
2022-12-15T13:12:50.815Z,100623.00
2022-12-15T13:15:18.822Z,100623.38
2022-12-15T13:17:52.950Z,100623.78
2022-12-15T13:20:27.720Z,100630.53
2022-12-15T13:23:19.191Z,100621.47
2022-12-15T13:26:03.623Z,100623.00
2022-12-15T13:28:44.169Z,100619.31
2022-12-15T13:31:36.946Z,100619.47
2022-12-15T13:34:14.502Z,100615.03
2022-12-15T13:36:49.265Z,100620.28
2022-12-15T13:39:53.229Z,100633.03
2022-12-15T13:42:38.825Z,100644.78
2022-12-15T13:45:36.935Z,100647.28
2022-12-15T13:48:28.153Z,100657.31
2022-12-15T13:51:04.053Z,100661.38
2022-12-15T13:53:39.463Z,100667.78
2022-12-15T13:56:23.571Z,100666.75
2022-12-15T13:58:57.843Z,100678.22
2022-12-15T14:01:32.629Z,100684.75
2022-12-15T14:04:08.233Z,100691.22
2022-12-15T14:06:41.481Z,100696.41
2022-12-15T14:09:15.071Z,100698.50
2022-12-15T14:11:53.356Z,100697.84
2022-12-15T14:14:26.201Z,100696.47
2022-12-15T14:17:03.083Z,100696.13
2022-12-15T14:19:41.075Z,100701.63
2022-12-15T14:22:28.049Z,100706.28
2022-12-15T14:25:03.980Z,100707.38
2022-12-15T14:27:35.214Z,100703.63
2022-12-15T14:30:22.718Z,100704.00
2022-12-15T14:32:55.637Z,100712.13
2022-12-15T14:35:27.582Z,100731.50
2022-12-15T14:37:59.751Z,100727.47
2022-12-15T14:40:30.473Z,100724.63
2022-12-15T14:43:00.195Z,100721.50
2022-12-15T14:45:32.445Z,100722.06
2022-12-15T14:48:39.548Z,100731.03
2022-12-15T14:50:53.663Z,100730.75
2022-12-15T14:53:27.678Z,100732.53
2022-12-15T14:55:59.603Z,100733.97
2022-12-15T14:58:32.507Z,100731.47
2022-12-15T15:01:03.643Z,100735.44
2022-12-15T15:03:07.048Z,100584.59
2022-12-15T15:03:07.967Z,100564.34
2022-12-15T15:03:37.589Z,100733.31
2022-12-15T15:06:16.292Z,100731.31
2022-12-15T15:08:49.680Z,100736.22
2022-12-15T15:11:23.151Z,100729.44
2022-12-15T15:13:56.300Z,100731.81
2022-12-15T15:16:27.042Z,100733.03
2022-12-15T15:18:58.699Z,100728.56
2022-12-15T15:21:30.533Z,100732.63
2022-12-15T15:24:02.711Z,100732.44
2022-12-15T15:26:33.182Z,100734.63
2022-12-15T15:29:03.641Z,100736.31
2022-12-15T15:31:41.569Z,100743.75
2022-12-15T15:34:12.321Z,100754.56
2022-12-15T15:36:43.043Z,100755.16
2022-12-15T15:39:16.841Z,100758.44
2022-12-15T15:41:46.910Z,100758.53
2022-12-15T15:44:17.125Z,100763.84
2022-12-15T15:46:49.143Z,100763.84
2022-12-15T15:49:20.832Z,100753.66
2022-12-15T15:51:50.962Z,100763.16
2022-12-15T15:54:24.613Z,100766.41
2022-12-15T15:56:54.673Z,100771.78
2022-12-15T15:59:27.141Z,100780.38
2022-12-15T16:01:58.091Z,100774.03
2022-12-15T16:04:28.011Z,100783.75
2022-12-15T16:06:57.981Z,100793.84
2022-12-15T16:09:29.104Z,100801.06
2022-12-15T16:11:59.812Z,100799.50
2022-12-15T16:14:29.372Z,100790.78
2022-12-15T16:17:00.262Z,100789.50
2022-12-15T16:19:33.752Z,100795.03
2022-12-15T16:22:06.362Z,100799.00
2022-12-15T16:24:37.453Z,100790.28
2022-12-15T16:27:07.670Z,100786.75
2022-12-15T16:29:37.522Z,100787.63
2022-12-15T16:32:08.314Z,100793.75
2022-12-15T16:34:39.437Z,100785.94
2022-12-15T16:37:16.243Z,100789.88
2022-12-15T16:39:47.594Z,100795.81
2022-12-15T16:42:17.992Z,100799.69
2022-12-15T16:44:49.121Z,100802.44
2022-12-15T16:47:19.760Z,100810.97
2022-12-15T16:49:49.982Z,100809.19
2022-12-15T16:52:22.768Z,100814.25
2022-12-15T16:54:53.975Z,100818.41
2022-12-15T16:57:25.577Z,100828.31
2022-12-15T16:59:55.408Z,100822.63
2022-12-15T17:02:27.576Z,100830.09
2022-12-15T17:04:58.341Z,100824.31
2022-12-15T17:07:30.450Z,100816.31
2022-12-15T17:10:02.759Z,100817.31
2022-12-15T17:12:34.221Z,100816.03
2022-12-15T17:15:04.220Z,100813.84
2022-12-15T17:17:34.854Z,100817.53
2022-12-15T17:20:28.685Z,100810.78
2022-12-15T17:22:57.054Z,100817.13
2022-12-15T17:26:00.775Z,100821.38
2022-12-15T17:28:22.942Z,100818.91
2022-12-15T17:30:53.009Z,100825.72
2022-12-15T17:33:24.160Z,100819.06
2022-12-15T17:35:54.952Z,100813.09
2022-12-15T17:38:25.554Z,100819.72
2022-12-15T17:40:56.833Z,100813.97
2022-12-15T17:43:33.787Z,100823.94
2022-12-15T17:46:05.595Z,100828.56
2022-12-15T17:48:36.489Z,100820.13
2022-12-15T17:51:14.232Z,100822.19
2022-12-15T17:53:45.144Z,100823.00
2022-12-15T17:56:17.433Z,100829.75
2022-12-15T17:58:47.646Z,100835.28
2022-12-15T18:01:17.421Z,100833.84
2022-12-15T18:03:47.652Z,100840.03
2022-12-15T18:06:18.900Z,100843.75
2022-12-15T18:08:48.926Z,100854.44
2022-12-15T18:11:20.166Z,100865.09
2022-12-15T18:13:50.206Z,100870.91
2022-12-15T18:16:20.013Z,100880.53
2022-12-15T18:18:51.026Z,100868.69
2022-12-15T18:21:20.641Z,100881.16
2022-12-15T18:23:50.713Z,100882.63
2022-12-15T18:26:21.890Z,100885.72
2022-12-15T18:28:52.307Z,100887.72
2022-12-15T18:31:23.977Z,100895.81
2022-12-15T18:33:55.654Z,100881.66
2022-12-15T18:36:28.028Z,100886.22
2022-12-15T18:38:58.131Z,100889.16
2022-12-15T18:41:29.417Z,100892.25
2022-12-15T18:43:59.400Z,100892.63
2022-12-15T18:46:29.129Z,100894.31
2022-12-15T18:49:00.594Z,100895.84
2022-12-15T18:51:31.397Z,100909.44
2022-12-15T18:54:02.920Z,100907.81
2022-12-15T18:56:34.212Z,100914.69
2022-12-15T18:59:04.261Z,100925.91
2022-12-15T19:01:35.145Z,100931.34
2022-12-15T19:04:05.578Z,100934.66
2022-12-15T19:06:36.303Z,100940.78
2022-12-15T19:09:07.455Z,100948.38
2022-12-15T19:11:38.729Z,100951.91
2022-12-15T19:14:34.646Z,100953.78
2022-12-15T19:17:21.618Z,100952.81
2022-12-15T19:20:08.849Z,100948.53
2022-12-15T19:22:38.577Z,100963.22
2022-12-15T19:25:11.579Z,100964.56
2022-12-15T19:27:42.821Z,100968.91
2022-12-15T19:30:16.108Z,100974.00
2022-12-15T19:32:46.331Z,100978.28
2022-12-15T19:35:16.610Z,100979.34
2022-12-15T19:37:47.200Z,100983.78
2022-12-15T19:40:22.567Z,100990.03
2022-12-15T19:42:55.715Z,100986.38
2022-12-15T19:45:26.942Z,100981.28
2022-12-15T19:47:57.071Z,100980.50
2022-12-15T19:50:28.190Z,100979.00
2022-12-15T19:52:59.538Z,100991.09
2022-12-15T19:55:32.863Z,100995.28
2022-12-15T19:58:08.107Z,100992.88
2022-12-15T20:00:39.797Z,100997.97
2022-12-15T20:03:09.584Z,100988.97
2022-12-15T20:05:39.897Z,100994.13
2022-12-15T20:08:11.826Z,101000.03
2022-12-15T20:10:42.299Z,100994.25
2022-12-15T20:13:14.199Z,100990.03
2022-12-15T20:15:44.489Z,100984.88
2022-12-15T20:18:14.209Z,100981.41
2022-12-15T20:20:45.899Z,100984.97
2022-12-15T20:23:17.499Z,100991.91
2022-12-15T20:25:47.882Z,100989.31
2022-12-15T20:28:21.145Z,100999.56
2022-12-15T20:30:51.238Z,100992.03
2022-12-15T20:33:21.295Z,100980.75
2022-12-15T20:35:51.937Z,100990.22
2022-12-15T20:38:25.246Z,100986.84
2022-12-15T20:40:55.477Z,100985.94
2022-12-15T20:43:27.400Z,100987.53
2022-12-15T20:46:01.150Z,100993.59
2022-12-15T20:48:31.573Z,100985.94
2022-12-15T20:51:05.838Z,100989.59
2022-12-15T20:53:39.275Z,100991.38
2022-12-15T20:56:09.638Z,100977.66
2022-12-15T20:58:40.729Z,100964.72
2022-12-15T21:01:21.168Z,100972.47
2022-12-15T21:03:52.013Z,100980.22
2022-12-15T21:06:22.388Z,100983.00
2022-12-15T21:08:52.526Z,100992.25
2022-12-15T21:11:24.601Z,100985.59
2022-12-15T21:14:04.057Z,100994.31
2022-12-15T21:16:34.274Z,100995.28
2022-12-15T21:19:22.322Z,100997.09
2022-12-15T21:21:55.897Z,100992.16
2022-12-15T21:24:26.595Z,100998.22
2022-12-15T21:26:56.844Z,100992.44
2022-12-15T21:29:29.243Z,101001.28
2022-12-15T21:31:59.262Z,101000.47
2022-12-15T21:34:28.936Z,101008.22
2022-12-15T21:36:59.282Z,101022.91
2022-12-15T21:39:31.281Z,101020.41
2022-12-15T21:42:02.212Z,101030.22
2022-12-15T21:44:33.336Z,101045.88
2022-12-15T21:47:03.242Z,101055.34
2022-12-15T21:49:31.865Z,101060.69
2022-12-15T21:52:02.443Z,101058.03
2022-12-15T21:54:33.316Z,101059.09
2022-12-15T21:57:04.184Z,101048.06
2022-12-15T21:59:35.292Z,101047.25
2022-12-15T22:02:17.409Z,101055.97
2022-12-15T22:04:49.123Z,101058.47
2022-12-15T22:07:19.286Z,101051.59
2022-12-15T22:09:48.955Z,101057.75
2022-12-15T22:12:21.034Z,101049.03
2022-12-15T22:14:52.303Z,101051.88
2022-12-15T22:17:22.898Z,101057.06
2022-12-15T22:19:52.540Z,101058.81
2022-12-15T22:22:24.738Z,101051.16
2022-12-15T22:24:57.933Z,101054.72
2022-12-15T22:27:28.313Z,101050.41
2022-12-15T22:29:59.382Z,101058.38
2022-12-15T22:32:30.593Z,101054.16
2022-12-15T22:35:00.155Z,101046.59
2022-12-15T22:37:30.143Z,101056.84
2022-12-15T22:39:59.666Z,101044.91
2022-12-15T22:42:29.576Z,101051.94
2022-12-15T22:45:00.743Z,101056.28
2022-12-15T22:47:30.753Z,101055.41
2022-12-15T22:50:00.417Z,101055.75
2022-12-15T22:52:30.413Z,101060.03
2022-12-15T22:55:00.171Z,101061.75
2022-12-15T22:57:30.634Z,101074.66
2022-12-15T23:00:04.423Z,101063.44
2022-12-15T23:02:35.774Z,101063.59
2022-12-15T23:05:05.999Z,101059.41
2022-12-15T23:07:36.361Z,101066.91
2022-12-15T23:10:24.090Z,101071.28
2022-12-15T23:12:54.874Z,101070.56
2022-12-15T23:15:44.155Z,101076.63
2022-12-15T23:18:14.570Z,101085.16
2022-12-15T23:20:44.331Z,101074.06
2022-12-15T23:23:14.259Z,101078.34
2022-12-15T23:25:44.062Z,101080.81
2022-12-15T23:28:14.373Z,101076.53
2022-12-15T23:30:49.364Z,101074.75
2022-12-15T23:33:19.732Z,101069.75
2022-12-15T23:35:50.403Z,101067.72
2022-12-15T23:38:20.351Z,101070.22
2022-12-15T23:40:52.764Z,101077.41
2022-12-15T23:43:23.562Z,101081.63
2022-12-15T23:46:01.881Z,101085.00
2022-12-15T23:48:32.961Z,101085.97
2022-12-15T23:51:07.181Z,101092.03
2022-12-15T23:53:39.200Z,101091.16
2022-12-15T23:56:10.753Z,101100.69
2022-12-15T23:58:41.204Z,101097.22
